Latest Weather Observations for Biloela

IDQ60801

Issued at 7:35 am EST Wednesday 22 October 2014 (issued every 30 minutes, with the page automatically refreshed every 10 minutes)

About weather observations | Map of weather stations | Latest weather observations for QLD | Other Formats
Station Details ID: 039089 Name: THANGOOL AIRPORT Lat: -24.49 Lon: 150.57 Height: 193.1 m
Data from the previous 72 hours. | See also: Recent months at Biloela
Date/Time
EST
Temp
°C
App
Temp
°C
Dew
Point
Rel
Hum
%
Delta-T
°C
Wind Press
QNH
hPa
Press
MSL
hPa
Rain
since 9 am
mm
Dir
 
Spd
km/h
Gust
km/h
Spd
kts
Gust
kts
22/07:30am 21.5 19.7 13.4 60 4.7 ESE 15 24 8 13 1024.4 - 0.0
22/07:00am 20.0 15.5 12.5 62 4.2 ESE 28 37 15 20 1024.2 - 0.0
22/06:57am 20.2 15.4 12.9 63 4.2 E 30 35 16 19 1024.1 - 0.0
22/06:30am 18.7 17.9 12.9 69 3.3 ESE 9 13 5 7 1024.1 - 0.0
22/06:00am 18.5 17.8 13.1 71 3.1 E 9 13 5 7 1023.8 1023.0 0.0
22/05:30am 17.3 16.3 12.4 73 2.7 ESE 9 11 5 6 1023.4 - 0.0
22/05:00am 17.5 16.5 12.4 72 2.8 E 9 13 5 7 1023.1 - 0.0
22/04:30am 18.2 16.5 12.4 69 3.3 ESE 13 20 7 11 1023.0 - 0.0
22/04:00am 18.7 16.2 12.2 66 3.6 ESE 17 24 9 13 1022.9 - 0.0
22/03:30am 19.4 17.5 13.1 67 3.6 ESE 15 24 8 13 1022.9 - 0.0
22/03:00am 19.5 16.9 13.2 67 3.6 ESE 19 28 10 15 1022.9 1022.2 0.0
22/02:30am 19.6 18.4 14.0 70 3.3 ESE 13 19 7 10 1023.0 - 0.0
22/02:00am 19.5 18.3 14.1 71 3.1 ESE 13 26 7 14 1023.3 - 0.0
22/01:30am 19.2 19.1 13.8 71 3.1 SE 7 13 4 7 1023.7 - 0.0
22/01:00am 19.4 18.1 13.8 70 3.2 ESE 13 20 7 11 1023.9 - 0.0
22/12:30am 19.5 19.0 13.9 70 3.2 ESE 9 19 5 10 1024.4 - 0.0
22/12:00am 19.0 19.1 13.8 72 3.0 S 6 7 3 4 1024.6 1023.8 0.0
 
Date/Time
EST
Temp
°C
App
Temp
°C
Dew
Point
Rel
Hum
%
Delta-T
°C
Wind Press
QNH
hPa
Press
MSL
hPa
Rain
since 9 am
mm
Dir
 
Spd
km/h
Gust
km/h
Spd
kts
Gust
kts
21/11:30pm 19.4 19.2 13.6 69 3.3 ESE 7 13 4 7 1024.8 - 0.0
21/11:00pm 19.7 19.4 13.4 67 3.6 SE 7 13 4 7 1025.1 - 0.0
21/10:30pm 20.0 19.4 13.5 66 3.8 SE 9 15 5 8 1025.2 - 0.0
21/10:00pm 20.0 18.2 13.2 65 3.9 ESE 15 20 8 11 1025.3 - 0.0
21/09:30pm 20.6 18.7 13.1 62 4.3 ESE 15 22 8 12 1025.0 - 0.0
21/09:00pm 20.9 18.9 12.8 60 4.6 ESE 15 20 8 11 1024.8 1024.0 0.0
21/08:30pm 20.9 19.5 12.3 58 4.9 ESE 11 15 6 8 1024.6 - 0.0
21/08:00pm 21.3 19.2 12.4 57 5.1 E 15 20 8 11 1024.1 - 0.0
21/07:30pm 22.1 19.9 12.1 53 5.7 E 15 20 8 11 1023.7 - 0.0
21/07:00pm 23.3 19.3 11.7 48 6.6 E 24 32 13 17 1023.3 - 0.0
21/06:30pm 23.6 21.9 12.6 50 6.4 NE 13 17 7 9 1022.7 - 0.0
21/06:00pm 25.7 22.1 9.9 37 8.8 E 19 26 10 14 1022.0 1021.3 0.0
21/05:30pm 26.7 22.6 10.0 35 9.4 E 22 30 12 16 1021.4 - 0.0
21/05:00pm 27.5 23.6 9.3 32 10.1 E 20 28 11 15 1021.1 - 0.0
21/04:30pm 28.3 23.7 9.6 31 10.5 E 24 33 13 18 1020.8 - 0.0
21/04:00pm 28.7 23.9 8.9 29 11.0 E 24 35 13 19 1020.7 - 0.0
21/03:30pm 29.7 25.6 8.7 27 11.7 E 20 32 11 17 1020.6 - 0.0
21/03:00pm 29.7 24.6 7.6 25 12.1 E 24 35 13 19 1020.8 1020.0 0.0
21/02:30pm 29.3 23.4 6.0 23 12.4 E 26 33 14 18 1021.0 - 0.0
21/02:00pm 29.1 24.2 5.2 22 12.5 ESE 20 33 11 18 1021.3 - 0.0
21/01:30pm 29.0 24.0 6.4 24 12.1 E 22 32 12 17 1021.7 - 0.0
21/01:00pm 29.5 25.1 4.9 21 12.8 ESE 17 35 9 19 1022.3 - 0.0
21/12:30pm 28.2 23.5 5.1 23 12.0 ESE 19 28 10 15 1022.9 - 0.0
21/12:00pm 28.2 22.8 6.3 25 11.6 E 24 35 13 19 1023.6 1022.8 0.0
21/11:30am 27.4 22.0 4.5 23 11.7 E 22 32 12 17 1024.1 - 0.0
21/11:00am 26.6 22.4 7.6 30 10.2 ESE 19 28 10 15 1024.6 - 0.0
21/10:30am 25.5 21.2 7.1 31 9.8 ESE 19 35 10 19 1025.0 - 0.0
21/10:00am 24.7 20.7 8.2 35 8.9 SE 19 30 10 16 1025.4 - 0.0
21/09:30am 24.7 20.7 9.0 37 8.6 E 20 28 11 15 1025.8 - 0.0
21/09:00am 23.0 21.0 11.4 48 6.5 SE 13 20 7 11 1025.9 1025.2 0.0
21/08:30am 22.4 19.2 11.8 51 6.0 E 20 26 11 14 1025.7 - 0.0
21/08:00am 20.5 17.9 12.0 58 4.8 ESE 17 24 9 13 1025.7 - 0.0
21/07:30am 19.7 16.9 12.7 64 4.0 ESE 19 28 10 15 1025.5 - 0.0
21/07:00am 18.3 16.8 13.2 72 2.9 SE 13 20 7 11 1025.3 - 0.0
21/06:30am 16.3 15.9 13.0 81 1.9 SSE 7 13 4 7 1025.1 - 0.0
21/06:00am 13.9 13.2 12.1 89 1.0 SSE 7 11 4 6 1024.8 1024.0 0.0
21/05:30am 13.3 12.4 11.5 89 1.0 SSE 7 11 4 6 1024.3 - 0.0
21/05:00am 13.4 12.2 11.5 88 1.0 SSE 9 11 5 6 1023.9 - 0.0
21/04:30am 13.2 12.3 11.3 88 1.0 SE 7 11 4 6 1023.7 - 0.0
21/04:00am 13.4 12.6 11.1 86 1.2 SE 6 9 3 5 1023.7 - 0.0
21/03:30am 14.0 13.1 11.5 85 1.3 SE 7 11 4 6 1023.5 - 0.0
21/03:00am 13.9 12.8 11.8 87 1.1 SE 9 13 5 7 1023.6 1022.8 0.0
21/02:30am 12.9 12.0 11.5 91 0.7 ESE 7 11 4 6 1023.6 - 0.0
21/02:00am 12.1 11.0 10.5 90 0.8 ESE 7 9 4 5 1023.6 - 0.0
21/01:30am 12.3 11.2 10.7 90 0.8 SSE 7 9 4 5 1023.8 - 0.0
21/01:00am 12.0 10.8 9.7 86 1.2 SE 6 6 3 3 1024.0 - 0.0
21/12:30am 13.1 12.0 10.1 82 1.6 SE 6 7 3 4 1024.2 - 0.0
21/12:16am 13.9 13.9 11.2 84 1.4 SE 2 7 1 4 1024.2 - 0.0
21/12:00am 13.9 13.8 10.7 81 1.7 ESE 2 7 1 4 1024.2 1023.4 0.0
 
Date/Time
EST
Temp
°C
App
Temp
°C
Dew
Point
Rel
Hum
%
Delta-T
°C
Wind Press
QNH
hPa
Press
MSL
hPa
Rain
since 9 am
mm
Dir
 
Spd
km/h
Gust
km/h
Spd
kts
Gust
kts
20/11:56pm 14.7 15.3 11.8 83 1.6 CALM 0 6 0 3 1024.2 - 0.0
20/11:30pm 14.2 14.5 10.8 80 1.8 CALM 0 0 0 0 1024.5 - 0.0
20/11:00pm 14.7 14.2 10.7 77 2.1 E 4 7 2 4 1024.7 - 0.0
20/10:34pm 16.1 15.4 11.9 76 2.3 ESE 7 9 4 5 1024.7 - 0.0
20/10:30pm 15.8 14.9 11.4 75 2.4 SE 7 9 4 5 1024.7 - 0.0
20/10:14pm 16.9 16.3 11.8 72 2.8 E 6 7 3 4 1024.6 - 0.0
20/10:00pm 17.2 16.7 11.9 71 2.9 NE 6 7 3 4 1024.6 - 0.0
20/09:30pm 18.3 17.6 12.1 67 3.5 N 7 9 4 5 1024.3 - 0.0
20/09:00pm 18.6 17.9 11.9 65 3.7 N 7 9 4 5 1023.9 1023.1 0.0
20/08:30pm 19.0 18.4 11.8 63 4.0 NNW 6 9 3 5 1023.3 - 0.0
20/08:00pm 20.3 18.5 12.0 59 4.7 ENE 13 20 7 11 1022.6 - 0.0
20/07:30pm 21.0 20.5 11.9 56 5.1 NNW 6 13 3 7 1022.1 - 0.0
20/07:00pm 21.9 19.6 11.9 53 5.7 NNE 15 24 8 13 1021.3 - 0.0
20/06:30pm 23.0 19.9 11.7 49 6.4 NE 19 24 10 13 1020.7 - 0.0
20/06:00pm 24.7 22.2 10.9 42 7.8 NNE 15 20 8 11 1020.2 1019.4 0.0
20/05:30pm 27.9 23.0 4.9 23 11.9 E 20 26 11 14 1019.6 - 0.0
20/05:00pm 28.9 23.9 4.4 21 12.6 E 20 26 11 14 1019.3 - 0.0
20/04:30pm 29.6 24.7 5.0 21 12.9 E 20 30 11 16 1019.0 - 0.0
20/04:00pm 29.9 25.0 5.2 21 13.0 E 20 33 11 18 1019.0 - 0.0
20/03:30pm 29.8 26.1 6.5 23 12.5 ESE 15 32 8 17 1019.0 - 0.0
20/03:00pm 30.1 25.9 7.3 24 12.4 ESE 19 24 10 13 1019.2 1018.4 0.0
20/02:30pm 30.1 24.8 6.7 23 12.6 E 24 35 13 19 1019.3 - 0.0
20/02:00pm 30.1 25.5 6.7 23 12.6 E 20 35 11 19 1019.8 - 0.0
20/01:30pm 30.0 25.7 7.8 25 12.2 E 20 28 11 15 1020.2 - 0.0
20/01:00pm 29.5 26.6 8.0 26 11.8 E 13 24 7 13 1020.8 - 0.0
20/12:30pm 28.5 26.0 8.2 28 11.1 ESE 11 20 6 11 1021.4 - 0.0
20/12:00pm 27.3 24.4 6.7 27 10.9 SSE 11 17 6 9 1022.1 1021.4 0.0
20/11:30am 27.4 24.7 7.3 28 10.8 E 11 22 6 12 1022.7 - 0.0
20/11:00am 26.0 21.5 6.1 28 10.4 E 19 26 10 14 1023.5 - 0.0
20/10:30am 25.4 22.1 6.6 30 9.9 ESE 13 20 7 11 1024.1 - 0.0
20/10:00am 24.3 21.1 7.0 33 9.1 ESE 13 19 7 10 1024.6 - 0.0
20/09:30am 23.5 20.1 7.6 36 8.4 E 15 20 8 11 1024.9 - 0.0
20/09:00am 22.5 20.8 10.0 45 6.8 SE 9 19 5 10 1025.2 1024.4 0.0
20/08:30am 20.5 19.3 11.7 57 4.9 NNE 9 11 5 6 1025.4 - 0.0
20/08:00am 19.4 18.2 11.7 61 4.3 E 9 17 5 9 1025.6 - 0.0
20/07:30am 17.7 16.4 11.3 66 3.5 SE 9 15 5 8 1025.8 - 0.0
20/07:00am 16.0 16.6 12.0 77 2.2 CALM 0 7 0 4 1025.6 - 0.0
20/06:30am 13.7 13.1 11.6 87 1.1 SE 6 7 3 4 1025.3 - 0.0
20/06:00am 11.4 11.6 10.5 94 0.5 CALM 0 0 0 0 1025.2 1024.4 0.0
20/05:30am 9.2 7.4 8.0 92 0.6 ESE 7 9 4 5 1024.8 - 0.0
20/05:00am 10.9 10.1 9.8 93 0.6 SSE 4 9 2 5 1024.4 - 0.0
20/04:30am 10.6 10.3 8.5 87 1.0 CALM 0 0 0 0 1024.1 - 0.0
20/04:00am 11.0 10.4 8.9 87 1.1 SE 2 6 1 3 1024.1 - 0.0
20/03:30am 11.0 10.8 8.9 87 1.1 CALM 0 0 0 0 1023.8 - 0.0
20/03:00am 11.8 11.0 9.5 86 1.2 E 4 6 2 3 1023.8 1023.0 0.0
20/02:30am 12.0 11.5 9.4 84 1.3 E 2 6 1 3 1023.8 - 0.0
20/02:00am 13.5 13.9 11.2 86 1.2 CALM 0 0 0 0 1023.9 - 0.0
20/01:30am 12.9 12.7 10.3 84 1.4 E 2 6 1 3 1023.9 - 0.0
20/01:00am 13.8 13.0 11.0 83 1.5 SE 6 9 3 5 1024.1 - 0.0
20/12:30am 13.2 13.4 10.4 83 1.5 CALM 0 0 0 0 1024.3 - 0.0
20/12:00am 13.4 13.6 10.6 83 1.5 CALM 0 0 0 0 1024.6 1023.8 0.0
 
Date/Time
EST
Temp
°C
App
Temp
°C
Dew
Point
Rel
Hum
%
Delta-T
°C
Wind Press
QNH
hPa
Press
MSL
hPa
Rain
since 9 am
mm
Dir
 
Spd
km/h
Gust
km/h
Spd
kts
Gust
kts
19/11:30pm 14.5 14.8 10.9 79 1.9 CALM 0 0 0 0 1024.6 - 0.0
19/11:00pm 16.0 15.4 11.8 76 2.3 ESE 6 9 3 5 1024.8 - 0.0
19/10:30pm 17.1 16.0 11.8 71 2.9 ESE 9 11 5 6 1025.1 - 0.0
19/10:00pm 17.4 16.3 12.1 71 2.9 E 9 13 5 7 1025.2 - 0.0
19/09:30pm 18.3 17.3 12.3 68 3.4 NE 9 11 5 6 1025.0 - 0.0
19/09:00pm 19.0 18.0 12.3 65 3.7 NNE 9 13 5 7 1024.8 1024.0 0.0
19/08:30pm 19.5 18.5 12.3 63 4.1 N 9 11 5 6 1024.5 - 0.0
19/08:00pm 20.3 18.6 12.3 60 4.5 NE 13 20 7 11 1023.9 - 0.0
19/07:30pm 20.9 19.1 12.1 57 5.0 NNE 13 22 7 12 1023.5 - 0.0
19/07:00pm 21.9 18.8 12.2 54 5.5 NE 20 30 11 16 1022.7 - 0.0
19/06:30pm 22.5 19.4 12.2 52 5.9 NNE 20 28 11 15 1022.2 - 0.0
19/06:00pm 23.6 21.0 12.0 48 6.6 NE 17 26 9 14 1021.8 1021.1 0.0
19/05:30pm 26.2 22.9 8.2 32 9.8 E 15 20 8 11 1021.2 - 0.0
19/05:00pm 27.6 23.5 8.5 30 10.5 E 20 28 11 15 1020.9 - 0.0
19/04:30pm 26.8 23.9 8.3 31 10.1 E 13 22 7 12 1020.7 - 0.0
19/04:00pm 28.6 26.8 9.3 30 10.8 E 9 15 5 8 1020.7 - 0.0
19/03:30pm 28.8 25.5 9.5 30 10.8 E 17 24 9 13 1020.6 - 0.0
19/03:00pm 28.4 24.0 7.6 27 11.3 ESE 20 28 11 15 1020.8 1020.0 0.0
19/02:30pm 27.9 22.5 8.2 29 10.8 SE 26 46 14 25 1021.0 - 0.0
19/02:00pm 28.6 23.7 9.8 31 10.6 E 26 37 14 20 1021.3 - 0.0
19/01:30pm 28.6 25.4 9.8 31 10.6 E 17 28 9 15 1021.8 - 0.0
19/01:00pm 27.9 23.7 9.7 32 10.2 E 22 35 12 19 1022.4 - 0.0
19/12:30pm 27.2 23.5 10.0 34 9.7 E 20 28 11 15 1022.9 - 0.0
19/12:00pm 26.7 22.8 9.5 34 9.5 ESE 20 35 11 19 1023.5 1022.7 0.0
19/11:30am 26.3 22.1 9.6 35 9.3 E 22 35 12 19 1024.1 - 0.0
19/11:00am 26.3 22.7 10.5 37 8.9 ESE 20 33 11 18 1024.6 - 0.0
19/10:30am 25.1 22.0 10.2 39 8.3 ESE 17 26 9 14 1025.1 - 0.0
19/10:00am 25.0 21.9 11.6 43 7.7 E 19 30 10 16 1025.4 - 0.0
19/09:30am 24.5 19.7 11.5 44 7.4 E 28 39 15 21 1025.7 - 0.0
19/09:24am 24.3 19.5 11.6 45 7.2 E 28 48 15 26 1025.7 - 0.0
19/09:00am 24.2 21.2 12.5 48 6.7 ESE 20 30 11 16 1025.9 1025.2 0.0
19/08:30am 22.8 19.1 11.5 49 6.4 ESE 22 32 12 17 1026.0 - 0.0
19/08:00am 21.9 17.9 11.9 53 5.7 ESE 24 33 13 18 1025.9 - 0.0

Other Formats:

Comma delimited format used in spreadsheet applications
http://www.bom.gov.au/fwo/IDQ60801/IDQ60801.94376.axf

JavaScript Object Notation format (JSON) in row-major order
http://www.bom.gov.au/fwo/IDQ60801/IDQ60801.94376.json